Time;durP1;ratioP1;P1;durP2;ratioP2;P2;SDS_P1;SDS_P2;PMS_P1;PMS_P2;Temp;Humidity;BMP_temperature;BMP_pressure;BME280_temperature;BME280_humidity;BME280_pressure;Samples;Min_cycle;Max_cycle;Signal;HPM_P1;HPM_P2
2024/01/09 00:01:43;;;;;;;;;;;21.60;32.30;;;;;;5076165;28;19947;-57
2024/01/09 00:04:10;;;;;;;;;;;21.60;32.20;;;;;;5076068;28;19970;-59
2024/01/09 00:06:37;;;;;;;;;;;21.60;32.20;;;;;;5075344;28;19924;-58
2024/01/09 00:09:04;;;;;;;;;;;21.60;32.20;;;;;;5074122;28;20357;-57
2024/01/09 00:11:31;;;;;;;;;;;21.60;32.10;;;;;;5075484;28;19974;-59
2024/01/09 00:13:58;;;;;;;;;;;21.60;32.10;;;;;;5075901;28;20282;-57
2024/01/09 00:16:25;;;;;;;;;;;21.60;32.10;;;;;;5075458;28;19928;-54
2024/01/09 00:18:55;;;;;;;;;;;21.60;32.10;;;;;;5075646;28;19925;-56
2024/01/09 00:21:22;;;;;;;;;;;21.60;32.10;;;;;;5075731;28;19925;-58
2024/01/09 00:23:50;;;;;;;;;;;21.60;32.10;;;;;;5075965;28;20301;-57
2024/01/09 00:26:17;;;;;;;;;;;21.60;32.10;;;;;;5075049;28;19928;-58
2024/01/09 00:28:44;;;;;;;;;;;21.60;32.10;;;;;;5075219;28;19925;-57
2024/01/09 00:31:11;;;;;;;;;;;21.60;32.00;;;;;;5075399;28;19983;-56
2024/01/09 00:33:38;;;;;;;;;;;21.60;32.00;;;;;;5075706;28;19968;-59
2024/01/09 00:36:05;;;;;;;;;;;21.60;32.10;;;;;;5075147;28;19929;-58
2024/01/09 00:38:32;;;;;;;;;;;21.50;32.00;;;;;;5075706;28;19925;-57
2024/01/09 00:40:59;;;;;;;;;;;21.60;32.10;;;;;;5075297;28;20030;-58
2024/01/09 00:43:26;;;;;;;;;;;21.50;32.00;;;;;;5075045;28;19925;-58
2024/01/09 00:45:53;;;;;;;;;;;21.50;32.00;;;;;;5075227;28;19924;-58
2024/01/09 00:48:19;;;;;;;;;;;21.50;32.00;;;;;;5075241;28;19932;-59
2024/01/09 00:50:47;;;;;;;;;;;21.50;32.10;;;;;;5074675;28;19925;-58
2024/01/09 00:53:14;;;;;;;;;;;21.50;32.10;;;;;;5074774;28;20386;-58
2024/01/09 00:55:41;;;;;;;;;;;21.50;32.10;;;;;;5075017;28;20023;-57
2024/01/09 00:58:07;;;;;;;;;;;21.50;32.10;;;;;;5074812;28;19976;-59
2024/01/09 01:00:34;;;;;;;;;;;21.40;32.00;;;;;;5074498;28;19925;-59
2024/01/09 01:03:01;;;;;;;;;;;21.40;32.00;;;;;;5074123;28;19978;-58
2024/01/09 01:05:28;;;;;;;;;;;21.50;32.00;;;;;;5074519;28;19932;-57
2024/01/09 01:07:55;;;;;;;;;;;21.50;32.00;;;;;;5074868;28;20305;-56
2024/01/09 01:10:22;;;;;;;;;;;21.50;31.90;;;;;;5074839;28;19974;-58
2024/01/09 01:12:49;;;;;;;;;;;21.50;31.90;;;;;;5074616;28;20336;-58
2024/01/09 01:15:16;;;;;;;;;;;21.50;31.90;;;;;;5074293;28;19924;-58
2024/01/09 01:17:43;;;;;;;;;;;21.50;31.80;;;;;;5074043;28;19964;-58
2024/01/09 01:20:10;;;;;;;;;;;21.50;31.80;;;;;;5073660;28;19959;-58
2024/01/09 01:22:37;;;;;;;;;;;21.50;31.80;;;;;;5074196;28;19932;-58
2024/01/09 01:25:04;;;;;;;;;;;21.50;31.80;;;;;;5074082;28;19932;-58
2024/01/09 01:27:31;;;;;;;;;;;21.50;31.80;;;;;;5074641;28;19947;-57
2024/01/09 01:29:58;;;;;;;;;;;21.50;31.80;;;;;;5074211;28;19925;-58
2024/01/09 01:32:25;;;;;;;;;;;21.50;31.80;;;;;;5074278;28;19924;-58
2024/01/09 01:34:52;;;;;;;;;;;21.50;31.80;;;;;;5073940;28;19956;-58
2024/01/09 01:37:19;;;;;;;;;;;21.50;31.80;;;;;;5074329;28;20316;-58
2024/01/09 01:39:46;;;;;;;;;;;21.50;31.80;;;;;;5073849;28;19933;-59
2024/01/09 01:42:13;;;;;;;;;;;21.50;31.70;;;;;;5073842;28;20016;-59
2024/01/09 01:44:40;;;;;;;;;;;21.50;31.70;;;;;;5056117;28;20381;-59
2024/01/09 01:47:09;;;;;;;;;;;21.50;31.70;;;;;;5073662;28;20439;-57
2024/01/09 01:49:36;;;;;;;;;;;21.50;31.80;;;;;;5073363;28;19932;-58
2024/01/09 01:52:03;;;;;;;;;;;21.50;31.70;;;;;;5073788;28;19925;-58
2024/01/09 01:54:32;;;;;;;;;;;21.50;31.80;;;;;;5073716;28;19925;-58
2024/01/09 01:56:59;;;;;;;;;;;21.40;31.80;;;;;;5073781;28;19932;-57
2024/01/09 01:59:26;;;;;;;;;;;21.40;31.80;;;;;;5073765;28;19929;-59
2024/01/09 02:01:53;;;;;;;;;;;21.40;31.80;;;;;;5073699;28;20015;-56
2024/01/09 02:04:21;;;;;;;;;;;21.40;31.80;;;;;;5073652;28;19971;-56
2024/01/09 02:06:48;;;;;;;;;;;21.40;31.70;;;;;;5073677;28;19925;-55
2024/01/09 02:09:15;;;;;;;;;;;21.40;31.70;;;;;;5073199;28;20431;-60
2024/01/09 02:11:43;;;;;;;;;;;21.40;31.80;;;;;;5073526;28;19924;-55
2024/01/09 02:14:10;;;;;;;;;;;21.30;31.80;;;;;;5073670;28;19947;-59
2024/01/09 02:16:38;;;;;;;;;;;21.40;31.80;;;;;;5073023;28;20232;-56
2024/01/09 02:19:05;;;;;;;;;;;21.40;31.70;;;;;;5073277;28;19931;-56
2024/01/09 02:21:33;;;;;;;;;;;21.40;31.70;;;;;;5073461;28;20016;-56
2024/01/09 02:24:00;;;;;;;;;;;21.40;31.70;;;;;;5073165;28;19994;-57
2024/01/09 02:26:29;;;;;;;;;;;21.40;31.60;;;;;;5073701;28;20262;-57
2024/01/09 02:29:20;;;;;;;;;;;21.40;31.50;;;;;;5073324;28;19924;-57
2024/01/09 02:31:47;;;;;;;;;;;21.50;31.60;;;;;;5072131;28;19982;-59
2024/01/09 02:34:14;;;;;;;;;;;21.50;31.60;;;;;;5073086;28;20385;-57
2024/01/09 02:36:41;;;;;;;;;;;21.40;31.50;;;;;;5073382;28;19925;-56
2024/01/09 02:39:08;;;;;;;;;;;21.40;31.50;;;;;;5072687;28;19928;-56
2024/01/09 02:41:38;;;;;;;;;;;21.40;31.50;;;;;;5072854;28;20019;-56
2024/01/09 02:44:05;;;;;;;;;;;21.40;31.50;;;;;;5073229;28;19931;-57
2024/01/09 02:46:32;;;;;;;;;;;21.40;31.50;;;;;;5072896;28;19924;-57
2024/01/09 02:48:59;;;;;;;;;;;21.40;31.50;;;;;;5073067;28;19924;-57
2024/01/09 02:51:26;;;;;;;;;;;21.40;31.50;;;;;;5072970;28;19974;-58
2024/01/09 02:53:53;;;;;;;;;;;21.40;31.50;;;;;;5072743;28;19967;-56
2024/01/09 02:56:21;;;;;;;;;;;21.40;31.50;;;;;;5072615;28;19924;-57
2024/01/09 02:58:48;;;;;;;;;;;21.40;31.50;;;;;;5072522;28;19970;-59
2024/01/09 03:01:15;;;;;;;;;;;21.40;31.50;;;;;;5073008;28;19947;-58
2024/01/09 03:03:41;;;;;;;;;;;21.40;31.50;;;;;;5072498;28;19986;-54
2024/01/09 03:06:08;;;;;;;;;;;21.40;31.50;;;;;;5072865;28;19931;-57
2024/01/09 03:08:36;;;;;;;;;;;21.40;31.50;;;;;;5073157;28;20340;-56
2024/01/09 03:11:02;;;;;;;;;;;21.40;31.50;;;;;;5072583;28;20020;-55
2024/01/09 03:13:29;;;;;;;;;;;21.30;31.50;;;;;;5072474;28;20402;-54
2024/01/09 03:15:56;;;;;;;;;;;21.30;31.50;;;;;;5072559;28;20411;-59
2024/01/09 03:18:23;;;;;;;;;;;21.30;31.50;;;;;;5072739;28;19986;-57
2024/01/09 03:20:51;;;;;;;;;;;21.30;31.50;;;;;;5055076;28;19924;-58
2024/01/09 03:23:18;;;;;;;;;;;21.30;31.50;;;;;;5072721;28;19932;-56
2024/01/09 03:25:45;;;;;;;;;;;21.30;31.40;;;;;;5072637;28;19968;-57
2024/01/09 03:28:12;;;;;;;;;;;21.40;31.40;;;;;;5072548;28;20266;-56
2024/01/09 03:30:40;;;;;;;;;;;21.40;31.40;;;;;;5071603;28;20226;-56
2024/01/09 03:33:07;;;;;;;;;;;21.40;31.30;;;;;;5072849;28;19935;-57
2024/01/09 03:35:35;;;;;;;;;;;21.40;31.30;;;;;;5072489;28;19931;-58
2024/01/09 03:38:01;;;;;;;;;;;21.40;31.30;;;;;;5072516;28;19931;-57
2024/01/09 03:40:28;;;;;;;;;;;21.40;31.30;;;;;;5072404;28;19924;-57
2024/01/09 03:42:55;;;;;;;;;;;21.40;31.30;;;;;;5072421;28;19943;-54
2024/01/09 03:45:23;;;;;;;;;;;21.40;31.30;;;;;;5076157;28;20320;-58
2024/01/09 03:47:50;;;;;;;;;;;21.40;31.20;;;;;;5076293;28;20058;-56
2024/01/09 03:50:17;;;;;;;;;;;21.40;31.20;;;;;;5076305;28;19932;-58
2024/01/09 03:52:45;;;;;;;;;;;21.40;31.30;;;;;;5076245;28;19931;-59
2024/01/09 03:55:12;;;;;;;;;;;21.40;31.30;;;;;;5076089;28;19951;-56
2024/01/09 03:57:39;;;;;;;;;;;21.40;31.30;;;;;;5076250;28;19932;-58
2024/01/09 04:00:06;;;;;;;;;;;21.40;31.20;;;;;;5075742;28;19928;-56
2024/01/09 04:02:33;;;;;;;;;;;21.40;31.30;;;;;;5075616;28;19924;-55
2024/01/09 04:05:01;;;;;;;;;;;21.40;31.30;;;;;;5069567;28;19967;-58
2024/01/09 04:07:27;;;;;;;;;;;21.40;31.30;;;;;;5075661;28;19935;-57
2024/01/09 04:09:54;;;;;;;;;;;21.40;31.20;;;;;;5076041;28;19931;-57
2024/01/09 04:12:21;;;;;;;;;;;21.40;31.20;;;;;;5066684;28;19925;-58
2024/01/09 04:14:48;;;;;;;;;;;21.30;31.20;;;;;;5055502;28;19964;-58
2024/01/09 04:17:15;;;;;;;;;;;21.30;31.20;;;;;;5071595;28;20289;-59
2024/01/09 04:19:42;;;;;;;;;;;21.30;31.30;;;;;;5075557;28;19947;-58
2024/01/09 04:22:09;;;;;;;;;;;21.30;31.40;;;;;;5075336;28;20346;-59
2024/01/09 04:24:36;;;;;;;;;;;21.30;31.30;;;;;;5075359;28;19929;-55
2024/01/09 04:27:03;;;;;;;;;;;21.20;31.20;;;;;;5074892;28;19924;-59
2024/01/09 04:29:30;;;;;;;;;;;21.30;31.30;;;;;;5075173;28;19924;-59
2024/01/09 04:31:57;;;;;;;;;;;21.20;31.20;;;;;;5075396;28;19928;-59
2024/01/09 04:34:24;;;;;;;;;;;21.30;31.20;;;;;;5075496;28;20377;-57
2024/01/09 04:36:51;;;;;;;;;;;21.30;31.20;;;;;;5075521;28;19925;-56
2024/01/09 04:39:18;;;;;;;;;;;21.30;31.30;;;;;;5075329;28;19924;-58
2024/01/09 04:41:45;;;;;;;;;;;21.30;30.90;;;;;;5073715;28;19971;-59
2024/01/09 04:44:12;;;;;;;;;;;21.30;30.80;;;;;;5073256;28;19932;-57
2024/01/09 04:46:39;;;;;;;;;;;21.30;30.60;;;;;;5071507;28;19925;-55
2024/01/09 04:49:06;;;;;;;;;;;21.20;30.50;;;;;;5067771;28;20393;-56
2024/01/09 04:51:33;;;;;;;;;;;21.20;30.30;;;;;;5074671;28;19935;-56
2024/01/09 04:54:00;;;;;;;;;;;21.20;30.20;;;;;;5074577;28;19924;-58
2024/01/09 04:56:27;;;;;;;;;;;21.20;30.10;;;;;;5073795;28;19925;-58
2024/01/09 04:58:53;;;;;;;;;;;21.30;30.00;;;;;;5074879;28;20259;-57
2024/01/09 05:01:21;;;;;;;;;;;21.20;30.00;;;;;;5074786;28;19928;-58
2024/01/09 05:03:49;;;;;;;;;;;21.30;30.00;;;;;;5074525;28;19928;-58
2024/01/09 05:06:18;;;;;;;;;;;21.30;29.90;;;;;;5074369;28;19940;-58
2024/01/09 05:08:46;;;;;;;;;;;21.30;29.80;;;;;;5074096;28;19932;-58
2024/01/09 05:11:14;;;;;;;;;;;21.30;29.80;;;;;;5074371;28;19925;-58
2024/01/09 05:13:45;;;;;;;;;;;21.30;29.70;;;;;;5074795;28;19924;-58
2024/01/09 05:16:12;;;;;;;;;;;21.30;29.70;;;;;;5074050;28;20034;-59
2024/01/09 05:18:40;;;;;;;;;;;21.30;29.60;;;;;;5074580;28;19978;-58
2024/01/09 05:21:08;;;;;;;;;;;21.30;29.60;;;;;;5073657;28;19928;-57
2024/01/09 05:23:35;;;;;;;;;;;21.30;29.60;;;;;;5073966;28;19930;-57
2024/01/09 05:26:03;;;;;;;;;;;21.30;29.60;;;;;;5056305;28;20352;-58
2024/01/09 05:28:30;;;;;;;;;;;21.30;29.50;;;;;;5073948;28;19970;-57
2024/01/09 05:30:57;;;;;;;;;;;21.30;29.50;;;;;;5073139;28;19978;-58
2024/01/09 05:33:24;;;;;;;;;;;21.30;29.50;;;;;;5073597;28;19995;-59
2024/01/09 05:35:52;;;;;;;;;;;21.30;29.50;;;;;;5073712;28;19924;-59
2024/01/09 05:38:19;;;;;;;;;;;21.30;29.50;;;;;;5074033;28;19932;-58
2024/01/09 05:40:46;;;;;;;;;;;21.30;29.50;;;;;;5074001;28;20327;-57
2024/01/09 05:43:13;;;;;;;;;;;21.30;29.50;;;;;;5072501;28;19924;-58
2024/01/09 05:45:40;;;;;;;;;;;21.30;29.50;;;;;;5073723;28;19925;-59
2024/01/09 05:48:08;;;;;;;;;;;21.30;29.40;;;;;;5073910;28;19925;-56
2024/01/09 05:50:35;;;;;;;;;;;21.30;29.40;;;;;;5072767;28;19925;-58
2024/01/09 05:53:02;;;;;;;;;;;21.30;29.40;;;;;;5073353;28;20015;-57
2024/01/09 05:55:29;;;;;;;;;;;21.30;29.50;;;;;;5073654;28;19931;-57
2024/01/09 05:57:56;;;;;;;;;;;21.30;29.40;;;;;;5072830;28;20016;-58
2024/01/09 06:00:23;;;;;;;;;;;21.30;29.40;;;;;;5071033;28;20133;-58
2024/01/09 06:02:51;;;;;;;;;;;21.40;29.40;;;;;;5073140;28;19924;-58
2024/01/09 06:05:18;;;;;;;;;;;21.40;29.40;;;;;;5070987;28;19982;-58
2024/01/09 06:07:45;;;;;;;;;;;21.40;29.40;;;;;;5072849;28;19924;-58
2024/01/09 06:10:12;;;;;;;;;;;21.40;29.40;;;;;;5072862;28;19974;-59
2024/01/09 06:12:39;;;;;;;;;;;21.40;29.40;;;;;;5073048;28;19928;-57
2024/01/09 06:15:07;;;;;;;;;;;21.40;29.40;;;;;;5072389;28;20624;-56
2024/01/09 06:17:34;;;;;;;;;;;21.40;29.40;;;;;;5070268;28;19924;-55
2024/01/09 06:20:01;;;;;;;;;;;21.30;29.30;;;;;;5054186;28;19924;-58
2024/01/09 06:22:29;;;;;;;;;;;21.40;29.40;;;;;;5066276;28;19933;-52
2024/01/09 06:24:56;;;;;;;;;;;21.40;28.60;;;;;;5071669;28;19960;-58
2024/01/09 06:27:23;;;;;;;;;;;21.50;28.80;;;;;;5065603;28;19958;-63
2024/01/09 06:29:50;;;;;;;;;;;21.50;28.80;;;;;;5067975;28;20387;-59
2024/01/09 06:32:17;;;;;;;;;;;21.60;29.10;;;;;;5068790;28;19933;-57
2024/01/09 06:34:44;;;;;;;;;;;21.70;29.20;;;;;;5065027;28;19924;-58
2024/01/09 06:37:11;;;;;;;;;;;21.80;29.30;;;;;;5052217;28;19928;-58
2024/01/09 06:39:38;;;;;;;;;;;21.90;29.40;;;;;;5060890;28;20004;-59
2024/01/09 06:42:05;;;;;;;;;;;22.00;29.60;;;;;;5063829;28;20436;-59
2024/01/09 06:44:32;;;;;;;;;;;22.10;29.60;;;;;;5067538;28;19925;-54
2024/01/09 06:46:59;;;;;;;;;;;22.20;29.60;;;;;;5061953;28;20019;-58
2024/01/09 06:49:27;;;;;;;;;;;22.30;29.80;;;;;;5043061;28;20370;-59
2024/01/09 06:51:54;;;;;;;;;;;22.50;30.10;;;;;;5063452;28;19936;-61
2024/01/09 06:54:21;;;;;;;;;;;22.50;30.00;;;;;;5065548;28;19925;-60
2024/01/09 06:56:48;;;;;;;;;;;22.60;30.00;;;;;;5063555;28;19935;-60
2024/01/09 06:59:16;;;;;;;;;;;22.70;30.00;;;;;;5064874;28;20027;-58
2024/01/09 07:01:43;;;;;;;;;;;22.70;30.00;;;;;;5067312;28;20076;-59
2024/01/09 07:04:10;;;;;;;;;;;22.80;30.10;;;;;;5062639;28;19924;-52
2024/01/09 07:06:37;;;;;;;;;;;22.90;30.50;;;;;;5065134;28;20013;-53
2024/01/09 07:09:05;;;;;;;;;;;23.00;30.30;;;;;;5062656;28;19933;-53
2024/01/09 07:11:31;;;;;;;;;;;23.00;30.30;;;;;;5066092;28;19963;-58
2024/01/09 07:13:58;;;;;;;;;;;23.10;30.70;;;;;;5066307;28;20614;-55
2024/01/09 07:16:26;;;;;;;;;;;23.20;30.50;;;;;;5046977;28;19932;-57
2024/01/09 07:18:53;;;;;;;;;;;23.20;30.40;;;;;;5067938;28;19968;-57
2024/01/09 07:21:20;;;;;;;;;;;23.30;30.70;;;;;;5069152;28;20034;-59
2024/01/09 07:23:47;;;;;;;;;;;23.30;30.50;;;;;;5069352;28;20382;-58
2024/01/09 07:26:15;;;;;;;;;;;23.40;30.30;;;;;;5068574;28;19924;-59
2024/01/09 07:28:42;;;;;;;;;;;23.50;30.00;;;;;;5065745;28;19924;-59
2024/01/09 07:31:09;;;;;;;;;;;23.50;29.70;;;;;;5064201;28;19933;-58
2024/01/09 07:33:36;;;;;;;;;;;23.60;29.70;;;;;;5066320;28;20186;-59
2024/01/09 07:36:05;;;;;;;;;;;23.60;29.70;;;;;;5070153;28;19940;-57
2024/01/09 07:38:33;;;;;;;;;;;23.70;29.30;;;;;;5065988;28;19978;-59
2024/01/09 07:41:00;;;;;;;;;;;23.70;29.00;;;;;;5064550;28;19939;-59
2024/01/09 07:43:27;;;;;;;;;;;23.80;29.00;;;;;;5064646;28;19937;-58
2024/01/09 07:45:54;;;;;;;;;;;23.80;28.70;;;;;;5070057;28;19924;-58
2024/01/09 07:48:21;;;;;;;;;;;23.90;28.80;;;;;;5065011;28;19971;-59
2024/01/09 07:50:49;;;;;;;;;;;23.90;28.80;;;;;;5066734;28;20019;-59
2024/01/09 07:53:16;;;;;;;;;;;24.00;28.80;;;;;;5073912;28;19925;-60
2024/01/09 07:55:43;;;;;;;;;;;24.00;28.70;;;;;;5067202;28;19994;-59
2024/01/09 07:58:11;;;;;;;;;;;24.00;28.80;;;;;;5069402;28;20031;-59
2024/01/09 08:00:38;;;;;;;;;;;24.10;28.90;;;;;;5065964;28;20042;-60
2024/01/09 08:03:05;;;;;;;;;;;24.10;29.00;;;;;;5077636;28;19924;-60
2024/01/09 08:05:33;;;;;;;;;;;24.10;29.10;;;;;;5067961;28;20374;-59
2024/01/09 08:08:01;;;;;;;;;;;24.20;28.90;;;;;;5066340;28;20365;-59
2024/01/09 08:10:28;;;;;;;;;;;24.20;29.00;;;;;;5069055;28;20015;-59
2024/01/09 08:12:55;;;;;;;;;;;24.20;29.00;;;;;;5070995;28;19925;-59
2024/01/09 08:15:22;;;;;;;;;;;24.30;28.90;;;;;;5069219;28;19928;-58
2024/01/09 08:17:49;;;;;;;;;;;24.30;29.00;;;;;;5073201;28;19935;-58
2024/01/09 08:20:16;;;;;;;;;;;24.30;28.90;;;;;;5066471;28;20222;-58
2024/01/09 08:22:44;;;;;;;;;;;24.40;29.00;;;;;;5065415;28;19944;-58
2024/01/09 08:25:10;;;;;;;;;;;24.40;29.00;;;;;;5066697;28;19978;-58
2024/01/09 08:27:37;;;;;;;;;;;24.50;29.00;;;;;;5072799;28;19928;-56
2024/01/09 08:30:07;;;;;;;;;;;24.50;29.00;;;;;;5063536;28;19933;-59
2024/01/09 08:32:34;;;;;;;;;;;24.60;28.90;;;;;;5070847;28;20328;-58
2024/01/09 08:35:02;;;;;;;;;;;24.60;28.60;;;;;;5067400;28;19932;-59
2024/01/09 08:37:29;;;;;;;;;;;24.70;28.80;;;;;;5073120;28;20015;-59
2024/01/09 08:39:56;;;;;;;;;;;24.70;28.70;;;;;;5069986;28;20305;-59
2024/01/09 08:42:23;;;;;;;;;;;24.80;29.00;;;;;;5069901;28;19924;-58
2024/01/09 08:44:50;;;;;;;;;;;24.90;28.40;;;;;;5066807;28;19932;-59
2024/01/09 08:47:19;;;;;;;;;;;24.90;28.40;;;;;;5068978;28;19928;-59
2024/01/09 08:49:46;;;;;;;;;;;24.90;28.40;;;;;;5068702;28;20241;-59
2024/01/09 08:52:13;;;;;;;;;;;25.00;28.40;;;;;;5068945;28;19939;-60
2024/01/09 08:54:40;;;;;;;;;;;25.00;28.40;;;;;;5066034;28;19956;-58
2024/01/09 08:57:07;;;;;;;;;;;25.10;28.40;;;;;;5066726;28;19935;-58
2024/01/09 08:59:34;;;;;;;;;;;25.10;28.40;;;;;;5063683;28;20524;-59
2024/01/09 09:02:01;;;;;;;;;;;25.10;28.40;;;;;;5066243;28;19933;-57
2024/01/09 09:04:28;;;;;;;;;;;25.10;28.30;;;;;;5066316;28;19931;-57
2024/01/09 09:06:55;;;;;;;;;;;25.10;28.20;;;;;;5073739;28;19924;-58
2024/01/09 09:09:22;;;;;;;;;;;25.20;28.30;;;;;;5066957;28;19939;-58
2024/01/09 09:11:49;;;;;;;;;;;25.20;28.20;;;;;;5064786;28;19931;-58
2024/01/09 09:14:16;;;;;;;;;;;25.20;28.10;;;;;;5064948;28;20385;-58
2024/01/09 09:16:43;;;;;;;;;;;25.20;27.90;;;;;;5067078;28;20011;-58
2024/01/09 09:19:10;;;;;;;;;;;25.20;28.00;;;;;;5067696;28;19963;-58
2024/01/09 09:21:38;;;;;;;;;;;25.20;27.40;;;;;;5071015;28;19928;-59
2024/01/09 09:24:05;;;;;;;;;;;25.20;27.20;;;;;;5066581;28;20035;-57
2024/01/09 09:26:32;;;;;;;;;;;25.20;27.20;;;;;;5050692;28;20404;-54
2024/01/09 09:29:00;;;;;;;;;;;25.20;27.30;;;;;;5068688;28;19982;-54
2024/01/09 09:31:44;;;;;;;;;;;25.20;27.40;;;;;;5067859;28;20001;-57
2024/01/09 09:34:11;;;;;;;;;;;25.20;27.60;;;;;;5066997;28;20039;-58
2024/01/09 09:36:38;;;;;;;;;;;25.20;27.70;;;;;;5064732;28;19925;-57
2024/01/09 09:39:05;;;;;;;;;;;25.20;27.80;;;;;;5069215;28;20305;-57
2024/01/09 09:41:32;;;;;;;;;;;25.20;27.80;;;;;;5066153;28;19928;-58
2024/01/09 09:44:03;;;;;;;;;;;25.20;28.00;;;;;;5062488;28;20073;-59
2024/01/09 09:46:31;;;;;;;;;;;25.20;28.00;;;;;;5066101;28;19943;-54
2024/01/09 09:48:59;;;;;;;;;;;25.20;28.00;;;;;;5067794;28;19968;-58
2024/01/09 09:51:26;;;;;;;;;;;25.30;28.00;;;;;;5065292;28;19924;-57
2024/01/09 09:53:54;;;;;;;;;;;25.30;27.90;;;;;;5064258;28;19940;-58
2024/01/09 09:56:21;;;;;;;;;;;25.30;27.60;;;;;;5062503;28;19940;-57
2024/01/09 09:58:48;;;;;;;;;;;25.40;27.50;;;;;;5065297;28;19936;-58
2024/01/09 10:01:16;;;;;;;;;;;25.40;27.50;;;;;;5069013;28;19924;-59
2024/01/09 10:04:01;;;;;;;;;;;25.40;27.40;;;;;;5066144;28;20317;-59
2024/01/09 10:06:29;;;;;;;;;;;25.40;27.50;;;;;;5065078;28;19928;-59
2024/01/09 10:08:56;;;;;;;;;;;25.40;27.50;;;;;;5069361;28;19963;-60
2024/01/09 10:11:23;;;;;;;;;;;25.40;27.60;;;;;;5063618;28;19928;-59
2024/01/09 10:13:51;;;;;;;;;;;25.40;27.50;;;;;;5067560;28;19928;-59
2024/01/09 10:16:18;;;;;;;;;;;25.50;27.40;;;;;;5067397;28;19932;-59
2024/01/09 10:18:45;;;;;;;;;;;25.50;27.40;;;;;;5062758;28;19935;-59
2024/01/09 10:21:12;;;;;;;;;;;25.50;27.40;;;;;;5064226;28;19985;-59
2024/01/09 10:23:40;;;;;;;;;;;25.50;27.50;;;;;;5064944;28;19931;-59
2024/01/09 10:26:10;;;;;;;;;;;25.50;27.40;;;;;;5065511;28;20021;-60
2024/01/09 10:28:36;;;;;;;;;;;25.60;27.40;;;;;;5055336;28;21143;-57
2024/01/09 10:31:05;;;;;;;;;;;25.60;27.40;;;;;;5063454;28;20281;-57
2024/01/09 10:33:33;;;;;;;;;;;25.60;27.30;;;;;;5067368;28;19963;-58
2024/01/09 10:36:00;;;;;;;;;;;25.50;27.20;;;;;;5066916;28;19933;-58
2024/01/09 10:38:27;;;;;;;;;;;25.50;27.30;;;;;;5062755;28;19928;-57
2024/01/09 10:40:56;;;;;;;;;;;25.60;27.30;;;;;;5067248;28;20384;-58
2024/01/09 10:43:26;;;;;;;;;;;25.60;26.90;;;;;;5068131;28;19933;-59
2024/01/09 10:45:54;;;;;;;;;;;25.50;26.90;;;;;;5064650;28;19925;-59
2024/01/09 10:48:22;;;;;;;;;;;25.60;27.30;;;;;;5066338;28;19936;-60
2024/01/09 10:50:52;;;;;;;;;;;25.50;27.40;;;;;;5065805;28;19929;-59
2024/01/09 10:53:20;;;;;;;;;;;25.50;27.30;;;;;;5066451;28;19933;-60
2024/01/09 10:55:49;;;;;;;;;;;25.50;27.30;;;;;;5067646;28;20388;-59
2024/01/09 10:58:17;;;;;;;;;;;25.40;27.30;;;;;;5062546;28;20405;-61
2024/01/09 11:00:44;;;;;;;;;;;25.40;27.40;;;;;;5064006;28;19936;-60
2024/01/09 11:03:11;;;;;;;;;;;25.40;27.40;;;;;;5064948;28;19933;-59
2024/01/09 11:05:41;;;;;;;;;;;25.30;27.40;;;;;;5068094;28;20023;-59
2024/01/09 11:08:10;;;;;;;;;;;25.30;27.50;;;;;;5067318;28;19978;-58
2024/01/09 11:10:37;;;;;;;;;;;25.20;28.00;;;;;;5065396;28;20023;-59
2024/01/09 11:13:06;;;;;;;;;;;25.20;27.70;;;;;;5067281;28;19925;-58
2024/01/09 11:15:46;;;;;;;;;;;25.10;27.70;;;;;;5070002;28;20293;-57
2024/01/09 11:18:15;;;;;;;;;;;25.10;27.80;;;;;;5065274;28;19928;-58
2024/01/09 11:20:43;;;;;;;;;;;25.00;27.70;;;;;;5068618;28;20301;-58
2024/01/09 11:23:11;;;;;;;;;;;25.00;27.70;;;;;;5063969;28;19955;-59
2024/01/09 11:25:38;;;;;;;;;;;24.90;27.70;;;;;;5060115;28;21345;-59
2024/01/09 11:28:07;;;;;;;;;;;24.90;27.60;;;;;;5065345;28;19924;-58
2024/01/09 11:30:34;;;;;;;;;;;24.90;27.70;;;;;;5065201;28;19924;-58
2024/01/09 11:33:24;;;;;;;;;;;24.80;27.60;;;;;;5061222;28;19932;-59
2024/01/09 11:35:51;;;;;;;;;;;24.80;27.70;;;;;;5065755;28;19944;-59
2024/01/09 11:38:18;;;;;;;;;;;24.80;27.70;;;;;;5062917;28;19933;-58
2024/01/09 11:40:45;;;;;;;;;;;24.70;27.70;;;;;;5064615;28;19931;-60
2024/01/09 11:43:12;;;;;;;;;;;24.70;27.70;;;;;;5062592;28;19933;-59
2024/01/09 11:45:39;;;;;;;;;;;24.70;27.70;;;;;;5061992;28;19929;-59
2024/01/09 11:48:07;;;;;;;;;;;24.70;27.90;;;;;;5064465;28;19925;-60
2024/01/09 11:50:38;;;;;;;;;;;24.60;28.00;;;;;;5064638;28;19982;-61
2024/01/09 11:53:05;;;;;;;;;;;24.70;28.10;;;;;;5070933;28;20383;-60
2024/01/09 11:55:32;;;;;;;;;;;24.60;28.00;;;;;;5066081;28;19933;-60
2024/01/09 11:58:00;;;;;;;;;;;24.60;28.10;;;;;;5060011;28;20021;-59
2024/01/09 12:00:26;;;;;;;;;;;24.60;28.10;;;;;;5063962;28;20393;-60
2024/01/09 12:02:54;;;;;;;;;;;24.60;28.10;;;;;;5067475;28;20467;-59
2024/01/09 12:05:22;;;;;;;;;;;24.60;28.10;;;;;;5067081;28;19954;-60
2024/01/09 12:07:49;;;;;;;;;;;24.50;28.10;;;;;;5068948;28;19932;-59
2024/01/09 12:10:16;;;;;;;;;;;24.50;28.10;;;;;;5067112;28;19928;-60
2024/01/09 12:13:05;;;;;;;;;;;24.50;28.10;;;;;;5064514;28;19924;-60
2024/01/09 12:15:32;;;;;;;;;;;24.50;28.20;;;;;;5068547;28;19970;-60
2024/01/09 12:18:01;;;;;;;;;;;24.50;28.20;;;;;;5069210;28;19928;-61
2024/01/09 12:20:29;;;;;;;;;;;24.50;28.20;;;;;;5070535;28;19925;-60
2024/01/09 12:22:56;;;;;;;;;;;24.40;28.20;;;;;;5067791;28;19998;-59
2024/01/09 12:25:23;;;;;;;;;;;24.40;28.50;;;;;;5067173;28;19986;-61
2024/01/09 12:27:51;;;;;;;;;;;24.40;28.20;;;;;;5070794;28;19948;-62
2024/01/09 12:30:18;;;;;;;;;;;24.30;28.20;;;;;;5069773;28;20413;-59
2024/01/09 12:32:45;;;;;;;;;;;24.30;28.20;;;;;;5055211;28;19931;-59
2024/01/09 12:35:12;;;;;;;;;;;24.30;28.30;;;;;;5050482;28;19955;-59
2024/01/09 12:37:39;;;;;;;;;;;24.30;28.50;;;;;;5066351;28;19940;-59
2024/01/09 12:40:09;;;;;;;;;;;24.30;28.70;;;;;;5073045;28;19932;-59
2024/01/09 12:42:36;;;;;;;;;;;24.30;28.90;;;;;;5067528;28;19925;-60
2024/01/09 12:45:04;;;;;;;;;;;24.40;29.00;;;;;;5070631;28;20413;-61
2024/01/09 12:47:31;;;;;;;;;;;24.30;29.10;;;;;;5055647;28;19932;-60
2024/01/09 12:49:58;;;;;;;;;;;24.40;29.20;;;;;;5066304;28;19940;-61
2024/01/09 12:52:31;;;;;;;;;;;24.30;29.50;;;;;;5054033;28;19932;-60
2024/01/09 12:54:59;;;;;;;;;;;24.30;28.90;;;;;;5067879;28;19932;-64
2024/01/09 12:57:31;;;;;;;;;;;24.30;28.90;;;;;;5074787;28;19935;-62
2024/01/09 12:59:58;;;;;;;;;;;24.30;28.70;;;;;;5069283;28;20291;-62
2024/01/09 13:02:25;;;;;;;;;;;24.30;28.70;;;;;;5069131;28;19968;-62
2024/01/09 13:04:53;;;;;;;;;;;24.30;28.50;;;;;;5065414;28;19931;-63
2024/01/09 13:07:20;;;;;;;;;;;24.30;28.40;;;;;;5072590;28;19936;-61
2024/01/09 13:09:48;;;;;;;;;;;24.30;28.60;;;;;;5070133;28;20297;-61
2024/01/09 13:12:16;;;;;;;;;;;24.30;28.60;;;;;;5069129;28;20397;-62
2024/01/09 13:14:43;;;;;;;;;;;24.40;28.80;;;;;;5068162;28;21238;-68
2024/01/09 13:17:11;;;;;;;;;;;24.30;28.70;;;;;;5067726;28;19932;-61
2024/01/09 13:19:38;;;;;;;;;;;24.40;28.80;;;;;;5071190;28;19929;-61
2024/01/09 13:22:06;;;;;;;;;;;24.40;28.80;;;;;;5069025;28;20374;-58
2024/01/09 13:24:36;;;;;;;;;;;24.40;28.70;;;;;;5066659;28;19931;-59
2024/01/09 13:27:03;;;;;;;;;;;24.40;28.70;;;;;;5067481;28;19943;-58
2024/01/09 13:29:31;;;;;;;;;;;24.40;28.80;;;;;;5067857;28;20427;-58
2024/01/09 13:32:01;;;;;;;;;;;24.40;28.90;;;;;;5070025;28;19951;-58
2024/01/09 13:34:29;;;;;;;;;;;24.40;28.90;;;;;;5072033;28;20321;-58
2024/01/09 13:36:56;;;;;;;;;;;24.40;28.80;;;;;;5061153;28;20308;-57
2024/01/09 13:39:27;;;;;;;;;;;24.40;28.80;;;;;;5069634;28;19929;-59
2024/01/09 13:41:55;;;;;;;;;;;24.40;28.80;;;;;;5068672;28;20429;-60
2024/01/09 13:44:22;;;;;;;;;;;24.40;28.70;;;;;;5069244;28;19931;-57
2024/01/09 13:46:50;;;;;;;;;;;24.30;28.70;;;;;;5065963;28;19943;-59
2024/01/09 13:49:17;;;;;;;;;;;24.30;28.50;;;;;;5065322;28;19925;-59
2024/01/09 13:51:45;;;;;;;;;;;24.30;28.50;;;;;;5063196;28;19928;-59
2024/01/09 13:54:21;;;;;;;;;;;24.30;28.70;;;;;;5067262;28;20289;-59
2024/01/09 13:56:48;;;;;;;;;;;24.30;28.80;;;;;;5070100;28;20514;-60
2024/01/09 13:59:15;;;;;;;;;;;24.20;28.70;;;;;;5065549;28;19932;-59
2024/01/09 14:01:43;;;;;;;;;;;24.30;28.70;;;;;;5066961;28;19924;-59
2024/01/09 14:04:15;;;;;;;;;;;24.30;28.80;;;;;;5066003;28;19972;-58
2024/01/09 14:06:45;;;;;;;;;;;24.30;28.90;;;;;;5067620;28;19932;-57
2024/01/09 14:09:12;;;;;;;;;;;24.30;28.90;;;;;;5063659;28;20296;-60
2024/01/09 14:11:39;;;;;;;;;;;24.30;28.90;;;;;;5064628;28;20378;-58
2024/01/09 14:14:06;;;;;;;;;;;24.20;29.00;;;;;;5066824;28;19940;-57
2024/01/09 14:16:33;;;;;;;;;;;24.30;29.10;;;;;;5065345;28;19925;-57
2024/01/09 14:19:02;;;;;;;;;;;24.30;29.10;;;;;;5073910;28;20431;-58